createdAt,value
2022-08-09T00:00:04.756Z,2.70
2022-08-09T00:06:17.445Z,2.40
2022-08-09T00:10:50.860Z,2.40
2022-08-09T00:16:02.678Z,2.70
2022-08-09T00:21:12.083Z,2.60
2022-08-09T00:26:29.468Z,2.90
2022-08-09T00:31:59.083Z,2.40
2022-08-09T00:37:09.661Z,2.50
2022-08-09T00:44:15.598Z,2.60
2022-08-09T00:47:46.838Z,2.50
2022-08-09T00:52:56.053Z,2.70
2022-08-09T00:58:05.872Z,2.40
2022-08-09T01:03:22.333Z,2.70
2022-08-09T01:08:49.457Z,2.70
2022-08-09T01:14:02.344Z,2.40
2022-08-09T01:19:42.398Z,2.50
2022-08-09T01:25:02.433Z,2.60
2022-08-09T01:30:35.312Z,2.60
2022-08-09T01:35:56.066Z,2.40
2022-08-09T01:41:13.782Z,2.80
2022-08-09T01:46:26.358Z,2.70
2022-08-09T01:51:37.268Z,2.60
2022-08-09T01:56:54.549Z,2.90
2022-08-09T02:02:07.020Z,2.60
2022-08-09T02:08:41.401Z,2.90
2022-08-09T02:12:50.026Z,2.50
2022-08-09T02:18:09.368Z,2.70
2022-08-09T02:23:23.329Z,2.80
2022-08-09T02:28:35.836Z,2.90
2022-08-09T02:34:06.650Z,3.00
2022-08-09T02:39:33.204Z,3.10
2022-08-09T02:44:46.383Z,3.00
2022-08-09T02:50:02.274Z,3.20
2022-08-09T02:55:21.049Z,2.70
2022-08-09T03:00:31.648Z,2.70
2022-08-09T03:05:40.570Z,2.80
2022-08-09T03:10:51.335Z,3.30
2022-08-09T03:16:05.966Z,3.50
2022-08-09T03:21:17.033Z,3.20
2022-08-09T03:26:29.377Z,3.30
2022-08-09T03:31:42.628Z,3.30
2022-08-09T03:37:54.294Z,3.10
2022-08-09T03:42:37.804Z,3.10
2022-08-09T03:47:47.303Z,3.10
2022-08-09T03:52:55.408Z,3.00
2022-08-09T03:58:14.683Z,3.00
2022-08-09T04:03:46.514Z,3.20
2022-08-09T04:08:55.915Z,2.70
2022-08-09T04:14:54.218Z,2.80
2022-08-09T04:19:42.732Z,2.90
2022-08-09T04:25:01.457Z,2.70
2022-08-09T04:30:14.591Z,3.40
2022-08-09T04:35:22.899Z,3.20
2022-08-09T04:40:46.980Z,2.90
2022-08-09T04:45:55.420Z,2.90
2022-08-09T04:51:03.488Z,3.00
2022-08-09T04:56:12.273Z,3.30
2022-08-09T05:01:29.056Z,2.50
2022-08-09T05:06:40.953Z,2.80
2022-08-09T05:11:52.250Z,2.80
2022-08-09T05:17:00.430Z,3.30
2022-08-09T05:22:28.311Z,2.80
2022-08-09T05:27:45.481Z,3.00
2022-08-09T05:32:57.311Z,3.00
2022-08-09T05:38:07.467Z,2.80
2022-08-09T05:43:16.816Z,3.00
2022-08-09T05:48:27.793Z,2.80
2022-08-09T05:53:42.525Z,2.90
2022-08-09T05:59:06.386Z,2.70
2022-08-09T06:04:23.358Z,2.40
2022-08-09T06:09:54.654Z,2.60
2022-08-09T06:15:02.691Z,2.50
2022-08-09T06:20:16.467Z,2.30
2022-08-09T06:25:26.737Z,2.10
2022-08-09T06:30:34.839Z,2.60
2022-08-09T06:35:57.656Z,2.70
2022-08-09T06:41:18.400Z,2.60
2022-08-09T06:46:40.347Z,2.40
2022-08-09T06:51:51.738Z,2.80
2022-08-09T06:57:02.327Z,2.80
2022-08-09T07:02:11.075Z,2.70
2022-08-09T07:08:00.331Z,2.50
2022-08-09T07:12:57.754Z,2.50
2022-08-09T07:18:06.863Z,2.80
2022-08-09T07:23:19.982Z,2.30
2022-08-09T07:28:29.346Z,2.40
2022-08-09T07:33:52.134Z,2.30
2022-08-09T07:39:04.286Z,2.60
2022-08-09T07:44:24.043Z,2.40
2022-08-09T07:50:04.589Z,2.60
2022-08-09T07:55:13.900Z,2.40
2022-08-09T08:00:36.397Z,2.20
2022-08-09T08:05:57.878Z,2.00
